createdAt,value
2017-12-06T00:02:12.375Z,83.30
2017-12-06T00:04:40.799Z,82.60
2017-12-06T00:07:08.626Z,82.60
2017-12-06T00:09:36.282Z,82.20
2017-12-06T00:12:03.901Z,81.00
2017-12-06T00:14:37.297Z,81.70
2017-12-06T00:17:04.927Z,81.10
2017-12-06T00:19:32.568Z,81.20
2017-12-06T00:22:00.436Z,82.20
2017-12-06T00:24:28.176Z,81.60
2017-12-06T00:26:55.837Z,81.20
2017-12-06T00:29:23.469Z,81.50
2017-12-06T00:31:51.094Z,81.90
2017-12-06T00:34:18.745Z,80.50
2017-12-06T00:36:47.147Z,80.40
2017-12-06T00:39:14.968Z,80.20
2017-12-06T00:41:43.410Z,79.30
2017-12-06T00:44:11.056Z,80.20
2017-12-06T00:46:38.754Z,80.60
2017-12-06T00:49:06.376Z,80.20
2017-12-06T00:51:34.798Z,81.20
2017-12-06T00:54:02.423Z,81.20
2017-12-06T00:56:30.060Z,80.50
2017-12-06T00:58:57.852Z,80.40
2017-12-06T01:01:25.489Z,80.60
2017-12-06T01:03:53.151Z,79.50
2017-12-06T01:06:20.787Z,79.70
2017-12-06T01:08:48.435Z,79.10
2017-12-06T01:11:16.108Z,79.30
2017-12-06T01:13:44.511Z,79.40
2017-12-06T01:16:12.163Z,79.20
2017-12-06T01:18:39.843Z,79.20
2017-12-06T01:21:07.470Z,80.50
2017-12-06T01:23:35.123Z,80.00
2017-12-06T01:26:02.741Z,79.90
2017-12-06T01:28:30.394Z,79.80
2017-12-06T01:30:58.030Z,79.30
2017-12-06T01:33:25.672Z,80.60
2017-12-06T01:35:53.316Z,78.80
2017-12-06T01:38:20.954Z,80.10
2017-12-06T01:40:48.736Z,80.10
2017-12-06T01:43:16.369Z,80.70
2017-12-06T01:45:43.998Z,80.40
2017-12-06T01:48:11.659Z,79.50
2017-12-06T01:50:39.298Z,79.50
2017-12-06T01:53:06.957Z,79.80
2017-12-06T01:55:34.609Z,80.00
2017-12-06T01:58:02.232Z,80.30
2017-12-06T02:00:29.889Z,79.80
2017-12-06T02:02:57.539Z,79.70
2017-12-06T02:05:25.270Z,78.80
2017-12-06T02:07:52.906Z,79.30
2017-12-06T02:10:21.772Z,79.50
2017-12-06T02:12:50.215Z,80.00
2017-12-06T02:15:17.850Z,80.00
2017-12-06T02:17:45.530Z,79.40
2017-12-06T02:20:13.919Z,79.90
2017-12-06T02:22:41.545Z,79.80
2017-12-06T02:25:10.222Z,78.30
2017-12-06T02:27:38.742Z,79.40
2017-12-06T02:30:06.404Z,79.40
2017-12-06T02:32:34.030Z,78.60
2017-12-06T02:35:01.664Z,80.20
2017-12-06T02:37:29.344Z,78.80
2017-12-06T02:40:08.826Z,78.30
2017-12-06T02:42:48.322Z,78.90
2017-12-06T02:45:25.395Z,79.30
2017-12-06T02:47:53.807Z,78.70
2017-12-06T02:50:21.438Z,78.60
2017-12-06T02:52:49.121Z,78.40
2017-12-06T02:55:16.743Z,79.10
2017-12-06T02:57:44.366Z,79.40
2017-12-06T03:00:12.027Z,78.50
2017-12-06T03:02:39.641Z,78.30
2017-12-06T03:05:07.309Z,78.00
2017-12-06T03:07:34.943Z,77.70
2017-12-06T03:10:02.649Z,78.30
2017-12-06T03:12:30.474Z,78.00
2017-12-06T03:14:58.228Z,78.80
2017-12-06T03:17:25.889Z,78.20
2017-12-06T03:19:53.557Z,78.70
2017-12-06T03:22:21.949Z,78.90
2017-12-06T03:24:49.666Z,78.80
2017-12-06T03:27:18.295Z,77.20
2017-12-06T03:29:45.954Z,77.20
2017-12-06T03:32:13.580Z,78.30
2017-12-06T03:34:41.206Z,78.70
2017-12-06T03:37:08.864Z,78.20
2017-12-06T03:39:36.490Z,77.30
2017-12-06T03:42:04.136Z,77.20
2017-12-06T03:44:31.771Z,78.10
2017-12-06T03:47:00.158Z,77.30
2017-12-06T03:49:27.854Z,77.30
2017-12-06T03:51:55.478Z,78.20
2017-12-06T03:54:23.129Z,78.00
2017-12-06T03:56:50.791Z,77.60
2017-12-06T03:59:18.748Z,77.80
2017-12-06T04:01:46.409Z,78.90
2017-12-06T04:04:14.033Z,78.90
2017-12-06T04:06:41.680Z,77.80
2017-12-06T04:09:09.314Z,77.70
2017-12-06T04:11:36.937Z,77.50
2017-12-06T04:14:04.600Z,77.50
2017-12-06T04:16:32.232Z,77.60
2017-12-06T04:18:59.998Z,76.70
2017-12-06T04:21:27.633Z,78.00
2017-12-06T04:23:55.376Z,77.40
2017-12-06T04:26:23.030Z,77.30
2017-12-06T04:28:50.665Z,77.00
2017-12-06T04:31:18.339Z,78.30
2017-12-06T04:33:45.960Z,77.80
2017-12-06T04:36:13.577Z,77.40
2017-12-06T04:38:41.999Z,77.40
2017-12-06T04:41:09.702Z,77.20
2017-12-06T04:43:37.364Z,77.80
2017-12-06T04:46:05.014Z,77.40
2017-12-06T04:48:32.643Z,78.30
2017-12-06T04:51:00.594Z,78.40
2017-12-06T04:53:28.381Z,77.30
2017-12-06T04:55:56.033Z,77.80
2017-12-06T04:58:23.705Z,76.90
2017-12-06T05:00:51.345Z,76.60
2017-12-06T05:03:18.993Z,78.10
2017-12-06T05:05:47.782Z,78.40
2017-12-06T05:08:16.212Z,79.00
2017-12-06T05:10:43.865Z,79.00
2017-12-06T05:13:11.496Z,77.80
2017-12-06T05:15:39.175Z,78.60
2017-12-06T05:18:07.340Z,77.00
2017-12-06T05:20:35.002Z,77.60
2017-12-06T05:23:03.368Z,77.60
2017-12-06T05:25:31.210Z,77.50
2017-12-06T05:27:59.673Z,75.60
2017-12-06T05:30:27.452Z,75.40
2017-12-06T05:32:55.114Z,75.70
2017-12-06T05:35:22.748Z,75.30
2017-12-06T05:37:50.370Z,75.00
2017-12-06T05:40:18.794Z,75.10
2017-12-06T05:42:46.405Z,75.00
2017-12-06T05:45:14.058Z,74.90
2017-12-06T05:47:41.677Z,73.80
2017-12-06T05:50:10.070Z,74.50
2017-12-06T05:52:37.713Z,74.40
2017-12-06T05:55:05.424Z,76.30
2017-12-06T05:57:33.087Z,75.30
2017-12-06T06:00:01.181Z,74.30
2017-12-06T06:02:29.086Z,74.70
2017-12-06T06:04:57.514Z,74.80
2017-12-06T06:07:25.143Z,73.80
2017-12-06T06:09:52.849Z,74.10
2017-12-06T06:12:20.478Z,73.50
2017-12-06T06:14:48.266Z,73.30
2017-12-06T06:17:15.922Z,73.60
2017-12-06T06:19:43.547Z,73.80
2017-12-06T06:22:11.979Z,73.30
2017-12-06T06:24:39.634Z,73.20
2017-12-06T06:27:07.253Z,74.10
2017-12-06T06:29:34.919Z,73.40
2017-12-06T06:32:02.550Z,73.60
2017-12-06T06:34:30.294Z,72.80
2017-12-06T06:36:58.213Z,72.30
2017-12-06T06:39:25.859Z,72.70
2017-12-06T06:41:53.538Z,72.20
2017-12-06T06:44:21.661Z,73.30
2017-12-06T06:46:49.874Z,71.40
2017-12-06T06:49:18.985Z,71.20
2017-12-06T06:51:47.415Z,70.60
2017-12-06T06:54:15.055Z,70.60
2017-12-06T06:56:42.689Z,70.70
2017-12-06T06:59:10.351Z,70.50
2017-12-06T07:01:37.983Z,70.50
2017-12-06T07:04:05.605Z,70.60
2017-12-06T07:06:33.250Z,70.10
2017-12-06T07:09:00.923Z,70.60
2017-12-06T07:11:28.873Z,70.60
2017-12-06T07:13:56.562Z,69.70
2017-12-06T07:16:24.364Z,69.70
2017-12-06T07:18:52.160Z,70.20
2017-12-06T07:21:19.948Z,69.60
2017-12-06T07:23:49.083Z,71.30
2017-12-06T07:26:23.707Z,70.60
2017-12-06T07:28:52.156Z,68.80
2017-12-06T07:31:19.838Z,68.70
2017-12-06T07:33:48.371Z,70.90
2017-12-06T07:36:16.132Z,70.80
2017-12-06T07:38:43.749Z,70.30
2017-12-06T07:41:11.404Z,70.00
2017-12-06T07:43:39.257Z,69.40
2017-12-06T07:46:06.889Z,69.90
2017-12-06T07:48:34.650Z,68.60
2017-12-06T07:51:02.269Z,69.90
2017-12-06T07:53:29.914Z,68.60
2017-12-06T07:55:57.740Z,67.00
2017-12-06T07:58:31.750Z,67.30
2017-12-06T08:00:59.412Z,67.30
2017-12-06T08:03:27.041Z,66.70
2017-12-06T08:05:54.770Z,66.80
2017-12-06T08:08:23.148Z,67.70
2017-12-06T08:10:50.807Z,67.60
2017-12-06T08:13:18.716Z,67.80
2017-12-06T08:15:47.111Z,68.30
2017-12-06T08:18:14.773Z,68.20
2017-12-06T08:20:42.409Z,66.70
2017-12-06T08:23:10.146Z,65.90
2017-12-06T08:25:38.676Z,66.60
2017-12-06T08:28:06.318Z,66.70
2017-12-06T08:30:33.961Z,66.90
2017-12-06T08:33:01.626Z,66.50
2017-12-06T08:35:29.466Z,66.80
2017-12-06T08:37:57.100Z,68.40
2017-12-06T08:40:24.782Z,69.00
2017-12-06T08:42:52.434Z,66.90
2017-12-06T08:45:20.049Z,66.30
2017-12-06T08:47:47.857Z,66.50
2017-12-06T08:50:15.470Z,67.30
2017-12-06T08:52:43.093Z,67.30
2017-12-06T08:55:10.741Z,66.40
2017-12-06T08:57:38.377Z,66.80
2017-12-06T09:00:06.027Z,68.70
2017-12-06T09:02:33.648Z,66.60
2017-12-06T09:05:01.270Z,66.20
2017-12-06T09:07:28.941Z,66.40
2017-12-06T09:09:56.557Z,68.10
2017-12-06T09:12:24.982Z,66.20
2017-12-06T09:14:52.609Z,66.20
2017-12-06T09:17:20.230Z,67.00
2017-12-06T09:19:47.969Z,65.20
2017-12-06T09:22:15.584Z,65.30
2017-12-06T09:24:44.318Z,67.60
2017-12-06T09:27:11.934Z,67.50
2017-12-06T09:29:39.761Z,67.00
2017-12-06T09:32:07.423Z,67.00
2017-12-06T09:34:35.814Z,66.30
2017-12-06T09:37:03.497Z,66.20
2017-12-06T09:39:31.135Z,67.60
2017-12-06T09:41:58.741Z,66.60
2017-12-06T09:44:26.389Z,65.80
2017-12-06T09:46:54.017Z,65.70
2017-12-06T09:49:21.682Z,65.80
2017-12-06T09:51:49.301Z,64.90
2017-12-06T09:54:16.924Z,66.00
2017-12-06T09:56:44.588Z,66.70
2017-12-06T09:59:12.978Z,67.70
2017-12-06T10:01:40.647Z,67.70
2017-12-06T10:04:08.306Z,67.10
2017-12-06T10:06:35.926Z,65.80
2017-12-06T10:09:03.583Z,67.30
2017-12-06T10:11:31.209Z,66.80
2017-12-06T10:13:58.901Z,67.70
2017-12-06T10:16:26.520Z,67.50
2017-12-06T10:18:54.139Z,67.10
2017-12-06T10:21:22.549Z,67.60
2017-12-06T10:23:50.170Z,67.70
2017-12-06T10:26:17.911Z,68.60
2017-12-06T10:28:45.530Z,67.60
2017-12-06T10:31:13.161Z,67.20
2017-12-06T10:33:40.827Z,66.80
2017-12-06T10:36:09.300Z,68.60
2017-12-06T10:38:37.825Z,67.70
2017-12-06T10:41:05.523Z,67.70
2017-12-06T10:43:33.145Z,66.10
2017-12-06T10:46:00.810Z,66.40
2017-12-06T10:48:29.360Z,66.30
2017-12-06T10:50:57.006Z,66.30
2017-12-06T10:53:24.633Z,67.70
2017-12-06T10:55:52.256Z,67.10
2017-12-06T10:58:19.921Z,66.50
2017-12-06T11:00:47.554Z,66.50
2017-12-06T11:03:15.218Z,66.90
2017-12-06T11:05:42.841Z,66.90
2017-12-06T11:08:10.499Z,67.00
2017-12-06T11:10:38.282Z,66.10
2017-12-06T11:13:05.909Z,65.40
2017-12-06T11:15:33.567Z,66.40
2017-12-06T11:18:01.198Z,65.10
2017-12-06T11:20:28.821Z,66.60
2017-12-06T11:22:56.475Z,67.00
2017-12-06T11:25:24.118Z,66.90
2017-12-06T11:27:51.780Z,65.50
2017-12-06T11:30:19.442Z,65.80
2017-12-06T11:32:47.075Z,66.90
2017-12-06T11:35:14.730Z,65.70
2017-12-06T11:37:42.391Z,65.40
2017-12-06T11:40:10.045Z,66.50
2017-12-06T11:42:37.720Z,66.40
2017-12-06T11:45:05.439Z,65.60
2017-12-06T11:47:33.085Z,65.90
2017-12-06T11:50:00.711Z,65.70
2017-12-06T11:52:28.788Z,65.70
2017-12-06T11:54:56.422Z,66.20
2017-12-06T11:57:24.037Z,65.90
2017-12-06T11:59:51.686Z,64.90
2017-12-06T12:02:19.463Z,65.80
2017-12-06T12:04:47.093Z,66.50
2017-12-06T12:07:14.710Z,65.90
2017-12-06T12:09:42.334Z,65.40
2017-12-06T12:12:09.977Z,64.40
2017-12-06T12:14:38.406Z,66.10
2017-12-06T12:17:06.049Z,66.00
2017-12-06T12:19:33.663Z,64.90
2017-12-06T12:22:01.289Z,64.30
2017-12-06T12:24:28.937Z,65.60
2017-12-06T12:26:56.562Z,64.60
2017-12-06T12:29:24.212Z,64.90
2017-12-06T12:31:52.593Z,64.60
2017-12-06T12:34:20.970Z,64.60
2017-12-06T12:36:48.658Z,64.60
2017-12-06T12:39:16.273Z,63.20
2017-12-06T12:41:43.945Z,64.10
2017-12-06T12:44:11.568Z,64.50
2017-12-06T12:46:39.309Z,64.00
2017-12-06T12:49:06.998Z,65.90
2017-12-06T12:51:34.618Z,64.50
2017-12-06T12:54:02.257Z,63.80
2017-12-06T12:56:29.873Z,62.80
2017-12-06T12:58:58.330Z,64.20
2017-12-06T13:01:26.742Z,64.10
2017-12-06T13:03:54.379Z,64.10
2017-12-06T13:06:22.029Z,61.50
2017-12-06T13:08:49.680Z,63.90
2017-12-06T13:11:17.302Z,62.60
2017-12-06T13:13:44.953Z,61.50
2017-12-06T13:16:12.574Z,62.60
2017-12-06T13:18:40.993Z,62.10
2017-12-06T13:21:08.679Z,62.10
2017-12-06T13:23:37.065Z,63.40
2017-12-06T13:26:04.729Z,63.40
2017-12-06T13:28:32.356Z,64.00
2017-12-06T13:31:00.786Z,63.80
2017-12-06T13:33:28.467Z,63.90
2017-12-06T13:35:56.189Z,63.50
2017-12-06T13:38:23.856Z,63.30
2017-12-06T13:40:51.482Z,63.70
2017-12-06T13:43:19.261Z,63.80
2017-12-06T13:45:46.875Z,64.90
2017-12-06T13:48:14.494Z,65.00
2017-12-06T13:50:42.142Z,65.90
2017-12-06T13:53:09.793Z,65.80
2017-12-06T13:55:37.449Z,65.30
2017-12-06T13:58:05.098Z,64.90
2017-12-06T14:00:32.723Z,65.50
2017-12-06T14:03:00.374Z,66.40
2017-12-06T14:05:28.029Z,65.40
2017-12-06T14:07:55.741Z,65.90
2017-12-06T14:10:23.356Z,66.20
2017-12-06T14:12:51.768Z,65.50
2017-12-06T14:15:19.522Z,65.50
2017-12-06T14:17:47.138Z,66.10
2017-12-06T14:20:14.818Z,65.80
2017-12-06T14:22:42.482Z,64.90
2017-12-06T14:25:10.096Z,67.70
2017-12-06T14:27:37.806Z,66.00
2017-12-06T14:30:06.194Z,66.60
2017-12-06T14:32:33.842Z,66.50
2017-12-06T14:35:01.471Z,66.50
2017-12-06T14:37:29.855Z,66.30
2017-12-06T14:39:57.502Z,66.20
2017-12-06T14:42:25.293Z,66.50
2017-12-06T14:44:52.949Z,67.30
2017-12-06T14:47:20.564Z,66.70
2017-12-06T14:49:48.254Z,66.80
2017-12-06T14:52:15.901Z,66.70
2017-12-06T14:54:43.518Z,65.40
2017-12-06T14:57:11.170Z,65.50
2017-12-06T14:59:38.950Z,65.90
2017-12-06T15:02:07.330Z,66.40
2017-12-06T15:04:34.990Z,66.40
2017-12-06T15:07:02.610Z,66.70
2017-12-06T15:09:31.026Z,66.10
2017-12-06T15:11:58.702Z,66.00
2017-12-06T15:14:26.313Z,66.40
2017-12-06T15:16:53.970Z,67.00
2017-12-06T15:19:21.586Z,68.10
2017-12-06T15:21:49.434Z,66.50
2017-12-06T15:24:17.053Z,67.00
2017-12-06T15:26:45.438Z,67.10
2017-12-06T15:29:13.734Z,67.10
2017-12-06T15:31:41.412Z,66.50
2017-12-06T15:34:09.190Z,67.00
2017-12-06T15:36:36.828Z,66.90
2017-12-06T15:39:04.460Z,66.80
2017-12-06T15:41:32.305Z,66.60
2017-12-06T15:43:59.918Z,66.60
2017-12-06T15:46:28.355Z,66.40
2017-12-06T15:48:55.979Z,66.40
2017-12-06T15:51:23.604Z,66.10
2017-12-06T15:53:53.951Z,66.20
2017-12-06T15:56:21.686Z,65.80
2017-12-06T15:58:49.367Z,66.10
2017-12-06T16:01:16.979Z,65.40
2017-12-06T16:03:44.606Z,66.00
2017-12-06T16:06:12.264Z,66.10
2017-12-06T16:08:39.890Z,66.20
2017-12-06T16:11:07.555Z,65.80
2017-12-06T16:13:35.369Z,65.80
2017-12-06T16:16:03.004Z,66.60
2017-12-06T16:18:31.414Z,66.30
2017-12-06T16:20:59.141Z,66.30
2017-12-06T16:23:26.916Z,65.70
2017-12-06T16:25:54.576Z,66.60
2017-12-06T16:28:22.198Z,66.20
2017-12-06T16:30:49.881Z,65.70
2017-12-06T16:33:17.505Z,65.90
2017-12-06T16:36:00.506Z,65.30
2017-12-06T16:38:28.258Z,65.60
2017-12-06T16:41:01.527Z,65.60
2017-12-06T16:43:29.774Z,65.50
2017-12-06T16:45:57.480Z,65.70
2017-12-06T16:48:25.380Z,66.10
2017-12-06T16:50:53.029Z,65.80
2017-12-06T16:53:20.698Z,66.10
2017-12-06T16:55:48.351Z,65.70
2017-12-06T16:58:16.002Z,66.10
2017-12-06T17:00:43.766Z,65.40
2017-12-06T17:03:11.466Z,66.20
2017-12-06T17:05:39.146Z,65.80
2017-12-06T17:08:06.778Z,65.70
2017-12-06T17:10:34.454Z,66.10
2017-12-06T17:13:02.134Z,65.40
2017-12-06T17:15:29.848Z,65.60
2017-12-06T17:17:57.530Z,65.90
2017-12-06T17:20:25.184Z,65.60
2017-12-06T17:22:52.812Z,66.10
2017-12-06T17:25:20.491Z,66.70
2017-12-06T17:27:48.231Z,66.60
2017-12-06T17:30:27.710Z,67.20
2017-12-06T17:32:55.392Z,66.70
2017-12-06T17:35:23.078Z,65.70
2017-12-06T17:37:50.698Z,65.90
2017-12-06T17:40:18.378Z,66.70
2017-12-06T17:42:46.000Z,66.70
2017-12-06T17:45:13.633Z,66.70
2017-12-06T17:47:41.324Z,66.10
2017-12-06T17:50:20.773Z,66.40
2017-12-06T17:52:48.441Z,66.60
2017-12-06T17:55:16.079Z,66.40
2017-12-06T17:57:44.498Z,67.00
2017-12-06T18:00:12.182Z,66.90
2017-12-06T18:02:40.657Z,67.70
2017-12-06T18:05:09.433Z,67.60
2017-12-06T18:07:37.073Z,67.70
2017-12-06T18:10:05.462Z,68.00
2017-12-06T18:12:33.123Z,68.00
2017-12-06T18:15:01.557Z,67.40
2017-12-06T18:17:29.260Z,67.50
2017-12-06T18:19:56.938Z,67.60
2017-12-06T18:22:25.321Z,68.90
2017-12-06T18:24:52.991Z,68.90
2017-12-06T18:27:20.831Z,67.60
2017-12-06T18:29:48.600Z,68.50
2017-12-06T18:32:16.261Z,68.30
2017-12-06T18:34:43.896Z,67.90
2017-12-06T18:37:11.560Z,68.20
2017-12-06T18:39:39.522Z,67.70
2017-12-06T18:42:07.239Z,68.30
2017-12-06T18:44:34.893Z,67.00
2017-12-06T18:47:02.662Z,67.50
2017-12-06T18:49:31.123Z,67.70
2017-12-06T18:51:58.749Z,67.60
2017-12-06T18:54:26.410Z,66.70
2017-12-06T18:56:54.025Z,66.70
2017-12-06T18:59:21.653Z,66.50
2017-12-06T19:01:50.758Z,68.00
2017-12-06T19:04:18.389Z,66.60
2017-12-06T19:06:46.288Z,67.10
2017-12-06T19:09:13.933Z,67.50
2017-12-06T19:11:41.592Z,67.60
2017-12-06T19:14:09.284Z,66.50
2017-12-06T19:16:36.946Z,67.00
2017-12-06T19:19:04.942Z,67.20
2017-12-06T19:21:32.588Z,66.70
2017-12-06T19:24:00.205Z,66.90
2017-12-06T19:26:27.947Z,66.40
2017-12-06T19:28:55.586Z,68.10
2017-12-06T19:31:23.237Z,67.50
2017-12-06T19:33:50.866Z,66.90
2017-12-06T19:36:18.685Z,66.30
2017-12-06T19:38:46.359Z,66.00
2017-12-06T19:41:13.994Z,66.80
2017-12-06T19:43:42.423Z,65.40
2017-12-06T19:46:10.063Z,65.40
2017-12-06T19:48:37.710Z,66.10
2017-12-06T19:51:05.376Z,65.40
2017-12-06T19:53:32.993Z,65.80
2017-12-06T19:56:00.661Z,66.80
2017-12-06T19:58:29.119Z,65.50
2017-12-06T20:00:56.749Z,65.50
2017-12-06T20:03:24.420Z,66.20
2017-12-06T20:05:55.531Z,66.20
2017-12-06T20:08:23.185Z,65.60
2017-12-06T20:10:50.823Z,65.50
2017-12-06T20:13:18.701Z,65.20
2017-12-06T20:15:46.445Z,65.00
2017-12-06T20:18:14.123Z,64.90
2017-12-06T20:20:41.777Z,65.30
2017-12-06T20:23:09.585Z,65.00
2017-12-06T20:25:37.204Z,65.00
2017-12-06T20:28:04.849Z,65.20
2017-12-06T20:30:32.505Z,65.10
2017-12-06T20:33:00.160Z,64.80
2017-12-06T20:35:27.830Z,65.40
2017-12-06T20:37:55.446Z,65.90
2017-12-06T20:40:23.098Z,65.50
2017-12-06T20:42:50.720Z,65.30
2017-12-06T20:45:18.446Z,65.50
2017-12-06T20:47:46.093Z,66.00
2017-12-06T20:50:13.704Z,66.00
2017-12-06T20:52:41.351Z,66.10
2017-12-06T20:55:08.997Z,67.20
2017-12-06T20:57:36.648Z,66.10
2017-12-06T21:00:04.271Z,66.70
2017-12-06T21:02:31.889Z,65.70
2017-12-06T21:04:59.685Z,65.90
2017-12-06T21:07:27.366Z,65.70
2017-12-06T21:09:55.017Z,66.40
2017-12-06T21:12:22.633Z,65.40
2017-12-06T21:14:50.247Z,65.90
2017-12-06T21:17:17.894Z,65.60
2017-12-06T21:19:45.518Z,64.80
2017-12-06T21:22:13.168Z,65.90
2017-12-06T21:24:40.787Z,66.30
2017-12-06T21:27:08.538Z,65.80
2017-12-06T21:29:36.188Z,65.40
2017-12-06T21:32:03.805Z,66.10
2017-12-06T21:34:31.465Z,65.80
2017-12-06T21:36:59.859Z,65.10
2017-12-06T21:39:27.472Z,65.10
2017-12-06T21:41:56.033Z,66.00
2017-12-06T21:44:24.418Z,65.00
2017-12-06T21:46:52.061Z,65.00
2017-12-06T21:49:19.709Z,65.00
2017-12-06T21:51:48.216Z,65.20
2017-12-06T21:54:15.880Z,65.20
2017-12-06T21:56:43.486Z,65.50
2017-12-06T21:59:11.166Z,65.30
2017-12-06T22:01:38.866Z,66.10
2017-12-06T22:04:07.254Z,65.10
2017-12-06T22:06:34.917Z,65.20
2017-12-06T22:09:02.546Z,65.90
2017-12-06T22:11:30.194Z,65.70
2017-12-06T22:13:57.816Z,65.10
2017-12-06T22:16:26.190Z,64.50
2017-12-06T22:18:53.829Z,64.50
2017-12-06T22:21:21.433Z,64.60
2017-12-06T22:23:49.112Z,64.70
2017-12-06T22:26:17.494Z,64.90
2017-12-06T22:28:45.101Z,64.90
2017-12-06T22:31:12.737Z,65.20
2017-12-06T22:33:40.352Z,65.30
2017-12-06T22:36:08.046Z,64.00
2017-12-06T22:38:35.646Z,64.40
2017-12-06T22:41:03.257Z,64.80
2017-12-06T22:43:30.904Z,64.70
2017-12-06T22:45:58.655Z,65.80
2017-12-06T22:48:26.311Z,65.40
2017-12-06T22:50:53.922Z,64.30
2017-12-06T22:53:21.566Z,65.10
2017-12-06T22:55:49.277Z,64.60
2017-12-06T22:58:16.889Z,65.10
2017-12-06T23:00:44.535Z,65.60
2017-12-06T23:03:12.137Z,64.70
2017-12-06T23:05:39.786Z,64.60
2017-12-06T23:08:07.394Z,65.90
2017-12-06T23:10:35.005Z,64.60
2017-12-06T23:13:03.408Z,65.00
2017-12-06T23:15:31.019Z,65.00
2017-12-06T23:17:59.473Z,65.10
2017-12-06T23:20:27.089Z,65.10
2017-12-06T23:22:54.728Z,64.40
2017-12-06T23:25:22.376Z,65.60
2017-12-06T23:27:50.001Z,64.40
2017-12-06T23:30:17.747Z,64.40
2017-12-06T23:32:45.356Z,64.60
2017-12-06T23:35:13.726Z,65.80
2017-12-06T23:37:42.131Z,65.20
2017-12-06T23:40:09.765Z,65.20
2017-12-06T23:42:37.412Z,64.80
2017-12-06T23:45:05.026Z,64.10
2017-12-06T23:47:33.405Z,65.10
2017-12-06T23:50:01.050Z,65.10
2017-12-06T23:52:29.774Z,64.70
2017-12-06T23:54:57.418Z,64.70
2017-12-06T23:57:25.032Z,65.20
2017-12-06T23:59:52.653Z,65.40
